Time;durP1;ratioP1;P1;durP2;ratioP2;P2;SDS_P1;SDS_P2;PMS_P1;PMS_P2;Temp;Humidity;BMP_temperature;BMP_pressure;BME280_temperature;BME280_humidity;BME280_pressure;Samples;Min_cycle;Max_cycle;Signal;HPM_P1;HPM_P2
2021/07/31 00:02:13;;;;;;;11.77;8.73;;;;;;;;;;4939017;29;20030;-69
2021/07/31 00:04:39;;;;;;;14.35;8.85;;;;;;;;;;4937721;29;20034;-66
2021/07/31 00:07:05;;;;;;;15.02;8.82;;;;;;;;;;4937911;29;20067;-67
2021/07/31 00:09:31;;;;;;;11.43;8.05;;;;;;;;;;4938166;29;20032;-69
2021/07/31 00:11:57;;;;;;;11.93;8.48;;;;;;;;;;4943560;29;20040;-69
2021/07/31 00:14:23;;;;;;;9.40;7.72;;;;;;;;;;4937927;29;20036;-66
2021/07/31 00:16:49;;;;;;;14.80;8.13;;;;;;;;;;4937645;29;20028;-68
2021/07/31 00:19:15;;;;;;;15.82;8.43;;;;;;;;;;4932108;29;20401;-65
2021/07/31 00:21:41;;;;;;;12.63;8.15;;;;;;;;;;4939738;29;20498;-68
2021/07/31 00:24:07;;;;;;;13.98;8.25;;;;;;;;;;4937707;29;20474;-70
2021/07/31 00:26:33;;;;;;;11.45;7.25;;;;;;;;;;4938504;29;20040;-70
2021/07/31 00:29:01;;;;;;;9.80;8.18;;;;;;;;;;4946859;29;20039;-70
2021/07/31 00:31:27;;;;;;;12.77;7.38;;;;;;;;;;4937263;29;20028;-69
2021/07/31 00:33:53;;;;;;;13.07;7.32;;;;;;;;;;4947354;29;20062;-70
2021/07/31 00:36:19;;;;;;;14.45;7.18;;;;;;;;;;4937271;29;20497;-67
2021/07/31 00:38:45;;;;;;;11.13;7.57;;;;;;;;;;4940645;29;20403;-67
2021/07/31 00:41:11;;;;;;;12.63;7.45;;;;;;;;;;4945868;29;20090;-70
2021/07/31 00:43:37;;;;;;;12.02;7.57;;;;;;;;;;4942404;29;20032;-69
2021/07/31 00:46:03;;;;;;;9.43;7.05;;;;;;;;;;4944204;29;20039;-71
2021/07/31 00:48:29;;;;;;;12.05;7.88;;;;;;;;;;4936810;29;20030;-69
2021/07/31 00:50:56;;;;;;;13.20;7.60;;;;;;;;;;4945313;29;20051;-65
2021/07/31 00:53:22;;;;;;;11.93;7.85;;;;;;;;;;4937290;29;20023;-68
2021/07/31 00:55:49;;;;;;;9.75;7.15;;;;;;;;;;4943959;29;20027;-70
2021/07/31 00:58:16;;;;;;;15.18;7.53;;;;;;;;;;4948940;29;20028;-67
2021/07/31 01:00:42;;;;;;;9.52;6.97;;;;;;;;;;4945056;29;20055;-67
2021/07/31 01:03:08;;;;;;;14.30;7.18;;;;;;;;;;4937056;29;20024;-70
2021/07/31 01:05:35;;;;;;;13.82;7.32;;;;;;;;;;4936954;29;20127;-70
2021/07/31 01:08:02;;;;;;;14.18;7.60;;;;;;;;;;4935954;29;20139;-66
2021/07/31 01:10:28;;;;;;;15.63;7.78;;;;;;;;;;4942157;29;20038;-69
2021/07/31 01:12:55;;;;;;;12.15;7.40;;;;;;;;;;4940705;29;20385;-69
2021/07/31 01:15:21;;;;;;;14.77;7.93;;;;;;;;;;4936727;29;20019;-67
2021/07/31 01:17:47;;;;;;;13.38;7.88;;;;;;;;;;4936656;29;20028;-67
2021/07/31 01:20:14;;;;;;;12.95;7.82;;;;;;;;;;4940544;29;20046;-68
2021/07/31 01:22:40;;;;;;;14.10;8.45;;;;;;;;;;4940830;29;20046;-68
2021/07/31 01:25:06;;;;;;;15.77;8.60;;;;;;;;;;4937206;29;20058;-71
2021/07/31 01:27:34;;;;;;;12.80;8.18;;;;;;;;;;4936546;29;20039;-70
2021/07/31 01:30:00;;;;;;;12.75;8.20;;;;;;;;;;4937557;29;20118;-67
2021/07/31 01:32:26;;;;;;;14.73;9.15;;;;;;;;;;4937228;29;20111;-67
2021/07/31 01:34:52;;;;;;;12.77;8.10;;;;;;;;;;4944067;29;20032;-70
2021/07/31 01:37:18;;;;;;;15.57;8.32;;;;;;;;;;4936209;29;20032;-70
2021/07/31 01:39:44;;;;;;;12.65;7.93;;;;;;;;;;4937361;29;20020;-70
2021/07/31 01:42:10;;;;;;;18.00;8.27;;;;;;;;;;4936907;29;20508;-71
2021/07/31 01:44:37;;;;;;;12.05;7.63;;;;;;;;;;4936183;29;20110;-70
2021/07/31 01:47:03;;;;;;;11.25;7.85;;;;;;;;;;4935820;29;20102;-67
2021/07/31 01:49:29;;;;;;;18.90;7.68;;;;;;;;;;4935772;29;20533;-66
2021/07/31 01:51:55;;;;;;;15.25;7.28;;;;;;;;;;4936544;29;20044;-70
2021/07/31 01:54:21;;;;;;;14.02;7.63;;;;;;;;;;4935671;29;20102;-67
2021/07/31 01:56:47;;;;;;;12.80;7.95;;;;;;;;;;4950483;29;20035;-69
2021/07/31 01:59:14;;;;;;;14.10;7.88;;;;;;;;;;4939890;29;20119;-70
2021/07/31 02:01:40;;;;;;;12.98;8.48;;;;;;;;;;4937457;29;20032;-70
2021/07/31 02:04:07;;;;;;;14.02;8.40;;;;;;;;;;4941972;29;20134;-70
2021/07/31 02:06:33;;;;;;;14.18;8.65;;;;;;;;;;4935590;29;20039;-70
2021/07/31 02:08:59;;;;;;;11.40;8.35;;;;;;;;;;4936808;29;20028;-69
2021/07/31 02:11:25;;;;;;;13.18;8.75;;;;;;;;;;4935414;29;20066;-67
2021/07/31 02:13:51;;;;;;;14.60;9.00;;;;;;;;;;4943087;29;20038;-67
2021/07/31 02:16:26;;;;;;;12.98;8.85;;;;;;;;;;4935808;29;20034;-69
2021/07/31 02:18:53;;;;;;;18.48;9.38;;;;;;;;;;4935511;29;20136;-66
2021/07/31 02:21:19;;;;;;;17.40;9.95;;;;;;;;;;4936245;29;20035;-66
2021/07/31 02:23:45;;;;;;;17.73;10.10;;;;;;;;;;4937839;29;20028;-65
2021/07/31 02:26:12;;;;;;;17.40;9.55;;;;;;;;;;4936061;29;20126;-69
2021/07/31 02:28:38;;;;;;;14.38;8.45;;;;;;;;;;4936093;29;20030;-70
2021/07/31 02:31:06;;;;;;;15.48;8.48;;;;;;;;;;4935356;29;20034;-69
2021/07/31 02:33:32;;;;;;;14.93;8.52;;;;;;;;;;4935365;29;20042;-69
2021/07/31 02:36:02;;;;;;;10.18;7.82;;;;;;;;;;4943951;29;20071;-70
2021/07/31 02:38:28;;;;;;;12.82;7.68;;;;;;;;;;4935871;29;20034;-69
2021/07/31 02:40:54;;;;;;;12.98;8.38;;;;;;;;;;4935289;29;20126;-70
2021/07/31 02:43:20;;;;;;;16.73;8.32;;;;;;;;;;4934993;29;20020;-67
2021/07/31 02:45:46;;;;;;;13.55;8.25;;;;;;;;;;4939986;29;20062;-71
2021/07/31 02:48:12;;;;;;;11.38;8.02;;;;;;;;;;4935892;29;20036;-69
2021/07/31 02:50:38;;;;;;;13.27;8.65;;;;;;;;;;4934660;29;20445;-67
2021/07/31 02:53:04;;;;;;;12.43;7.75;;;;;;;;;;4934975;29;20386;-68
2021/07/31 02:55:31;;;;;;;10.60;8.27;;;;;;;;;;4937506;29;20383;-70
2021/07/31 02:57:57;;;;;;;11.48;7.90;;;;;;;;;;4948188;29;20032;-70
2021/07/31 03:00:23;;;;;;;14.18;7.93;;;;;;;;;;4935147;29;20034;-68
2021/07/31 03:02:49;;;;;;;12.68;7.85;;;;;;;;;;4934668;29;20028;-67
2021/07/31 03:05:16;;;;;;;15.52;8.60;;;;;;;;;;4934483;29;20032;-70
2021/07/31 03:07:42;;;;;;;13.32;7.88;;;;;;;;;;4936084;29;20470;-68
2021/07/31 03:10:08;;;;;;;14.32;7.75;;;;;;;;;;4934923;29;20063;-70
2021/07/31 03:12:34;;;;;;;12.13;7.78;;;;;;;;;;4934862;29;20371;-70
2021/07/31 03:15:00;;;;;;;10.95;7.90;;;;;;;;;;4934773;29;20028;-68
2021/07/31 03:17:26;;;;;;;10.25;7.53;;;;;;;;;;4936815;29;20031;-66
2021/07/31 03:19:52;;;;;;;12.35;7.57;;;;;;;;;;4934515;29;20024;-67
2021/07/31 03:22:18;;;;;;;13.50;7.63;;;;;;;;;;4934909;29;20023;-69
2021/07/31 03:24:44;;;;;;;15.07;7.95;;;;;;;;;;4936280;29;20087;-67
2021/07/31 03:27:11;;;;;;;12.02;7.65;;;;;;;;;;4950930;29;20481;-70
2021/07/31 03:29:38;;;;;;;12.95;7.10;;;;;;;;;;4940330;29;20505;-68
2021/07/31 03:32:04;;;;;;;13.15;7.70;;;;;;;;;;4937101;29;20493;-71
2021/07/31 03:34:31;;;;;;;13.55;8.05;;;;;;;;;;4939051;29;20229;-68
2021/07/31 03:36:57;;;;;;;12.88;7.82;;;;;;;;;;4939025;29;20050;-67
2021/07/31 03:39:23;;;;;;;8.80;6.90;;;;;;;;;;4941217;29;20042;-69
2021/07/31 03:41:50;;;;;;;12.77;7.50;;;;;;;;;;4941278;29;20028;-70
2021/07/31 03:44:16;;;;;;;13.68;7.68;;;;;;;;;;4938841;29;20450;-66
2021/07/31 03:46:45;;;;;;;11.50;7.85;;;;;;;;;;4938850;29;20036;-67
2021/07/31 03:49:12;;;;;;;18.08;7.82;;;;;;;;;;4941052;29;20030;-71
2021/07/31 03:51:38;;;;;;;11.63;7.75;;;;;;;;;;4938048;29;20481;-71
2021/07/31 03:54:07;;;;;;;16.63;8.27;;;;;;;;;;4938000;29;20433;-69
2021/07/31 03:56:33;;;;;;;21.08;8.15;;;;;;;;;;4950383;29;20026;-69
2021/07/31 03:58:59;;;;;;;14.80;8.48;;;;;;;;;;4943805;29;20034;-67
2021/07/31 04:01:26;;;;;;;14.73;8.32;;;;;;;;;;4937987;29;20024;-70
2021/07/31 04:03:53;;;;;;;16.85;8.20;;;;;;;;;;4937878;29;20512;-69
2021/07/31 04:06:19;;;;;;;22.52;9.25;;;;;;;;;;4938946;29;20123;-69
2021/07/31 04:08:45;;;;;;;21.05;8.38;;;;;;;;;;4937569;29;20023;-70
2021/07/31 04:11:11;;;;;;;13.07;8.68;;;;;;;;;;4947777;29;20497;-68
2021/07/31 04:13:37;;;;;;;14.70;8.07;;;;;;;;;;4937569;29;20103;-69
2021/07/31 04:16:07;;;;;;;15.57;9.07;;;;;;;;;;4938607;29;20039;-67
2021/07/31 04:18:33;;;;;;;16.75;8.63;;;;;;;;;;4937731;29;20027;-68
2021/07/31 04:21:00;;;;;;;13.02;8.57;;;;;;;;;;4940635;29;20511;-68
2021/07/31 04:23:26;;;;;;;14.35;9.02;;;;;;;;;;4938624;29;20016;-70
2021/07/31 04:25:52;;;;;;;14.50;8.70;;;;;;;;;;4948026;29;20043;-67
2021/07/31 04:28:18;;;;;;;14.88;8.60;;;;;;;;;;4940306;29;20090;-67
2021/07/31 04:30:44;;;;;;;12.60;8.45;;;;;;;;;;4937433;29;20055;-70
2021/07/31 04:33:10;;;;;;;17.45;8.73;;;;;;;;;;4938348;29;20040;-67
2021/07/31 04:35:36;;;;;;;13.68;8.60;;;;;;;;;;4938208;29;20035;-70
2021/07/31 04:38:02;;;;;;;13.90;8.30;;;;;;;;;;4937776;29;20024;-70
2021/07/31 04:40:29;;;;;;;13.27;8.40;;;;;;;;;;4937109;29;20027;-68
2021/07/31 04:42:55;;;;;;;12.70;9.00;;;;;;;;;;4943890;29;20504;-69
2021/07/31 04:45:23;;;;;;;19.70;9.85;;;;;;;;;;4939853;29;20035;-70
2021/07/31 04:47:49;;;;;;;11.88;9.38;;;;;;;;;;4938677;29;20048;-69
2021/07/31 04:50:15;;;;;;;15.15;9.90;;;;;;;;;;4936317;29;20051;-71
2021/07/31 04:52:41;;;;;;;16.83;10.00;;;;;;;;;;4936883;29;20071;-70
2021/07/31 04:55:07;;;;;;;16.45;10.25;;;;;;;;;;4938077;29;20035;-71
2021/07/31 04:57:34;;;;;;;13.70;8.93;;;;;;;;;;4948276;29;20099;-66
2021/07/31 05:00:00;;;;;;;13.23;9.40;;;;;;;;;;4937091;29;20129;-69
2021/07/31 05:02:26;;;;;;;14.25;9.10;;;;;;;;;;4947682;29;20066;-67
2021/07/31 05:04:52;;;;;;;14.43;9.43;;;;;;;;;;4936799;29;20030;-68
2021/07/31 05:07:18;;;;;;;17.63;10.00;;;;;;;;;;4940403;29;20036;-66
2021/07/31 05:09:44;;;;;;;14.57;9.25;;;;;;;;;;4936279;29;20036;-68
2021/07/31 05:12:10;;;;;;;12.27;9.00;;;;;;;;;;4942088;29;20031;-66
2021/07/31 05:14:36;;;;;;;13.18;8.60;;;;;;;;;;4948520;29;20034;-67
2021/07/31 05:17:02;;;;;;;16.20;9.13;;;;;;;;;;4937757;29;20038;-67
2021/07/31 05:19:28;;;;;;;12.65;9.07;;;;;;;;;;4936285;29;20027;-65
2021/07/31 05:21:55;;;;;;;15.52;8.27;;;;;;;;;;4936673;29;20132;-68
2021/07/31 05:24:21;;;;;;;13.32;8.45;;;;;;;;;;4937578;29;20027;-65
2021/07/31 05:26:47;;;;;;;14.98;8.55;;;;;;;;;;4951128;29;20482;-69
2021/07/31 05:29:13;;;;;;;18.52;8.20;;;;;;;;;;4939697;29;20050;-68
2021/07/31 05:31:39;;;;;;;13.45;9.05;;;;;;;;;;4936257;29;20598;-66
2021/07/31 05:34:05;;;;;;;15.50;8.75;;;;;;;;;;4938280;29;20035;-70
2021/07/31 05:36:35;;;;;;;12.82;8.85;;;;;;;;;;4936077;29;20039;-70
2021/07/31 05:39:01;;;;;;;13.27;8.55;;;;;;;;;;4941504;29;20122;-69
2021/07/31 05:41:27;;;;;;;13.90;8.43;;;;;;;;;;4939294;29;20054;-68
2021/07/31 05:43:53;;;;;;;14.27;8.52;;;;;;;;;;4938010;29;20030;-67
2021/07/31 05:46:19;;;;;;;13.18;8.05;;;;;;;;;;4944363;29;20094;-66
2021/07/31 05:48:45;;;;;;;13.68;7.85;;;;;;;;;;4936928;29;20493;-70
2021/07/31 05:51:12;;;;;;;13.35;7.82;;;;;;;;;;4944523;29;20063;-66
2021/07/31 05:53:38;;;;;;;13.75;8.23;;;;;;;;;;4941319;29;20489;-66
2021/07/31 05:56:08;;;;;;;15.70;8.30;;;;;;;;;;4947386;29;20039;-64
2021/07/31 05:58:34;;;;;;;16.98;7.75;;;;;;;;;;4942755;29;20024;-69
2021/07/31 06:01:00;;;;;;;15.27;8.35;;;;;;;;;;4935965;29;20023;-64
2021/07/31 06:03:26;;;;;;;12.88;8.40;;;;;;;;;;4935910;29;20023;-67
2021/07/31 06:05:52;;;;;;;12.55;8.93;;;;;;;;;;4937719;29;20044;-66
2021/07/31 06:08:18;;;;;;;14.88;8.65;;;;;;;;;;4935591;29;20023;-66
2021/07/31 06:10:44;;;;;;;20.45;8.70;;;;;;;;;;4942961;29;20034;-63
2021/07/31 06:13:10;;;;;;;15.68;9.65;;;;;;;;;;4935321;29;20106;-65
2021/07/31 06:15:40;;;;;;;18.88;9.70;;;;;;;;;;4936707;29;20035;-67
2021/07/31 06:18:06;;;;;;;19.48;10.45;;;;;;;;;;4936396;29;20031;-67
2021/07/31 06:20:33;;;;;;;17.40;9.73;;;;;;;;;;4935379;29;20027;-68
2021/07/31 06:22:59;;;;;;;18.02;9.18;;;;;;;;;;4935460;29;20028;-63
2021/07/31 06:25:25;;;;;;;14.38;9.40;;;;;;;;;;4942253;29;20070;-63
2021/07/31 06:27:55;;;;;;;14.77;9.82;;;;;;;;;;4941680;29;20035;-67
2021/07/31 06:30:21;;;;;;;18.20;10.10;;;;;;;;;;4934991;29;20106;-67
2021/07/31 06:32:48;;;;;;;13.95;10.18;;;;;;;;;;4936935;29;20040;-69
2021/07/31 06:35:14;;;;;;;12.88;9.80;;;;;;;;;;4935278;29;20022;-67
2021/07/31 06:37:40;;;;;;;15.43;10.05;;;;;;;;;;4936212;29;20104;-68
2021/07/31 06:40:07;;;;;;;17.48;10.75;;;;;;;;;;4934893;29;20024;-70
2021/07/31 06:42:33;;;;;;;17.70;11.07;;;;;;;;;;4939332;29;20042;-68
2021/07/31 06:44:59;;;;;;;17.55;10.07;;;;;;;;;;4935198;29;20030;-65
2021/07/31 06:47:25;;;;;;;13.70;9.65;;;;;;;;;;4935243;29;20024;-66
2021/07/31 06:49:51;;;;;;;15.35;10.15;;;;;;;;;;4935846;29;20048;-65
2021/07/31 06:52:17;;;;;;;21.38;10.10;;;;;;;;;;4934918;29;20288;-69
2021/07/31 06:54:43;;;;;;;14.98;10.05;;;;;;;;;;4937987;29;20042;-68
2021/07/31 06:57:10;;;;;;;16.25;10.40;;;;;;;;;;4935157;29;20422;-64
2021/07/31 06:59:36;;;;;;;13.57;9.82;;;;;;;;;;4934766;29;20024;-67
2021/07/31 07:02:02;;;;;;;16.05;10.02;;;;;;;;;;4934901;29;20119;-65
2021/07/31 07:04:28;;;;;;;17.38;10.65;;;;;;;;;;4946538;29;20027;-65
2021/07/31 07:06:54;;;;;;;17.63;10.55;;;;;;;;;;4938241;29;20082;-69
2021/07/31 07:09:21;;;;;;;22.83;10.50;;;;;;;;;;4939727;29;20039;-65
2021/07/31 07:11:47;;;;;;;18.55;9.95;;;;;;;;;;4945073;29;20513;-68
2021/07/31 07:14:15;;;;;;;13.63;9.57;;;;;;;;;;4941738;29;20505;-65
2021/07/31 07:16:41;;;;;;;15.50;10.57;;;;;;;;;;4940527;29;20091;-68
2021/07/31 07:19:07;;;;;;;19.33;11.25;;;;;;;;;;4943206;29;20036;-65
2021/07/31 07:21:33;;;;;;;13.45;10.02;;;;;;;;;;4944861;29;20108;-68
2021/07/31 07:23:59;;;;;;;16.67;10.65;;;;;;;;;;4934662;29;20020;-69
2021/07/31 07:26:25;;;;;;;15.82;10.13;;;;;;;;;;4947971;29;20043;-65
2021/07/31 07:28:52;;;;;;;13.95;10.65;;;;;;;;;;4934472;29;20032;-68
2021/07/31 07:31:18;;;;;;;15.13;10.32;;;;;;;;;;4940461;29;20027;-68
2021/07/31 07:33:44;;;;;;;14.93;10.00;;;;;;;;;;4934790;29;20043;-69
2021/07/31 07:36:13;;;;;;;15.98;9.70;;;;;;;;;;4940449;29;20456;-69
2021/07/31 07:38:39;;;;;;;14.52;9.82;;;;;;;;;;4945661;29;20024;-69
2021/07/31 07:41:09;;;;;;;13.20;9.35;;;;;;;;;;4937548;29;20463;-69
2021/07/31 07:43:35;;;;;;;15.35;9.10;;;;;;;;;;4934632;29;20036;-68
2021/07/31 07:46:01;;;;;;;15.18;9.25;;;;;;;;;;4934849;29;20500;-69
2021/07/31 07:48:27;;;;;;;16.52;9.70;;;;;;;;;;4943239;29;20034;-65
2021/07/31 07:50:53;;;;;;;18.20;10.30;;;;;;;;;;4937858;29;20071;-69
2021/07/31 07:53:20;;;;;;;16.30;9.63;;;;;;;;;;4941071;29;20031;-68
2021/07/31 07:55:46;;;;;;;12.75;8.95;;;;;;;;;;4940671;29;20482;-69
2021/07/31 07:58:12;;;;;;;17.33;8.55;;;;;;;;;;4946822;29;20110;-67
2021/07/31 08:00:38;;;;;;;12.10;8.48;;;;;;;;;;4934448;29;20035;-65
2021/07/31 08:03:08;;;;;;;15.15;8.40;;;;;;;;;;4947256;29;20031;-66
2021/07/31 08:05:36;;;;;;;15.18;8.40;;;;;;;;;;4944657;29;20086;-65
2021/07/31 08:08:04;;;;;;;11.48;8.63;;;;;;;;;;4935974;29;20039;-66
2021/07/31 08:10:30;;;;;;;12.07;8.15;;;;;;;;;;4934271;29;20107;-68
2021/07/31 08:12:56;;;;;;;13.90;8.30;;;;;;;;;;4934014;29;20065;-66
2021/07/31 08:15:22;;;;;;;13.52;7.82;;;;;;;;;;4941986;29;20377;-65
2021/07/31 08:17:48;;;;;;;14.05;7.82;;;;;;;;;;4939869;29;20040;-66
2021/07/31 08:20:14;;;;;;;11.02;8.43;;;;;;;;;;4937614;29;20024;-66
2021/07/31 08:22:40;;;;;;;15.75;8.23;;;;;;;;;;4937789;29;20409;-68
2021/07/31 08:25:07;;;;;;;12.88;7.80;;;;;;;;;;4939390;29;20094;-69
2021/07/31 08:27:33;;;;;;;9.73;7.78;;;;;;;;;;4937582;29;20030;-67
2021/07/31 08:29:59;;;;;;;12.20;8.10;;;;;;;;;;4937179;29;20031;-65
2021/07/31 08:32:25;;;;;;;16.05;8.30;;;;;;;;;;4937616;29;20050;-68
2021/07/31 08:34:51;;;;;;;17.45;8.60;;;;;;;;;;4937359;29;20027;-66
2021/07/31 08:37:18;;;;;;;13.52;8.23;;;;;;;;;;4937813;29;20024;-68
2021/07/31 08:39:44;;;;;;;11.23;7.72;;;;;;;;;;4938474;29;20126;-68
2021/07/31 08:42:12;;;;;;;12.80;8.23;;;;;;;;;;4938214;29;20027;-66
2021/07/31 08:44:38;;;;;;;13.98;8.35;;;;;;;;;;4937489;29;20393;-66
2021/07/31 08:47:04;;;;;;;13.55;8.80;;;;;;;;;;4942601;29;20036;-68
2021/07/31 08:49:32;;;;;;;13.90;8.57;;;;;;;;;;4936883;29;20398;-66
2021/07/31 08:51:59;;;;;;;14.52;8.55;;;;;;;;;;4938923;29;20040;-69
2021/07/31 08:54:25;;;;;;;12.43;8.48;;;;;;;;;;4948877;29;20085;-69
2021/07/31 08:56:53;;;;;;;12.55;8.10;;;;;;;;;;4940006;29;20545;-67
2021/07/31 08:59:19;;;;;;;11.88;8.70;;;;;;;;;;4940574;29;20027;-69
2021/07/31 09:01:45;;;;;;;10.70;8.30;;;;;;;;;;4936879;29;20034;-66
2021/07/31 09:04:14;;;;;;;16.38;8.50;;;;;;;;;;4936981;29;20031;-68
2021/07/31 09:06:40;;;;;;;17.10;9.18;;;;;;;;;;4937947;29;20036;-68
2021/07/31 09:09:06;;;;;;;11.10;8.15;;;;;;;;;;4941258;29;20030;-69
2021/07/31 09:11:32;;;;;;;9.88;8.68;;;;;;;;;;4937660;29;20091;-68
2021/07/31 09:14:08;;;;;;;17.10;9.52;;;;;;;;;;4929661;29;20485;-65
2021/07/31 09:16:34;;;;;;;14.85;8.75;;;;;;;;;;4943194;29;20062;-67
2021/07/31 09:19:07;;;;;;;16.35;9.32;;;;;;;;;;4952428;29;20389;-69
2021/07/31 09:21:33;;;;;;;;;;;;;;;;;;4939682;29;20031;-68
2021/07/31 09:23:59;;;;;;;12.45;8.25;;;;;;;;;;4936660;29;19907;-69
2021/07/31 09:26:35;;;;;;;20.35;8.82;;;;;;;;;;4938282;29;20036;-69
2021/07/31 09:29:11;;;;;;;11.63;8.60;;;;;;;;;;4936995;29;20028;-66
2021/07/31 09:31:39;;;;;;;13.60;9.10;;;;;;;;;;4936355;29;20044;-67
2021/07/31 09:34:06;;;;;;;12.27;8.90;;;;;;;;;;4947630;29;20481;-68
2021/07/31 09:36:39;;;;;;;17.08;9.18;;;;;;;;;;4942307;29;20114;-68
2021/07/31 09:39:06;;;;;;;16.10;9.52;;;;;;;;;;4935957;29;20587;-65
2021/07/31 09:41:33;;;;;;;14.65;10.15;;;;;;;;;;4939187;29;20040;-66
2021/07/31 09:44:04;;;;;;;12.40;9.73;;;;;;;;;;4935926;29;20028;-65
2021/07/31 09:46:36;;;;;;;15.25;9.55;;;;;;;;;;4936980;29;20073;-67
2021/07/31 09:49:02;;;;;;;14.98;9.70;;;;;;;;;;4940106;29;20078;-68
2021/07/31 09:51:36;;;;;;;14.13;9.13;;;;;;;;;;4937629;29;20098;-65
2021/07/31 09:54:06;;;;;;;13.68;8.50;;;;;;;;;;4936127;29;20052;-66
2021/07/31 09:56:35;;;;;;;13.25;9.00;;;;;;;;;;4943396;29;20031;-67
2021/07/31 09:59:01;;;;;;;12.23;8.48;;;;;;;;;;4942044;29;20533;-67
2021/07/31 10:01:28;;;;;;;18.58;9.15;;;;;;;;;;4935649;29;20050;-65
2021/07/31 10:03:55;;;;;;;11.95;9.10;;;;;;;;;;4936124;29;20078;-65
2021/07/31 10:06:22;;;;;;;16.90;11.68;;;;;;;;;;4936328;29;20036;-67
2021/07/31 10:08:49;;;;;;;13.75;8.20;;;;;;;;;;4936058;29;20110;-66
2021/07/31 10:11:15;;;;;;;14.25;8.35;;;;;;;;;;4946816;29;20031;-64
2021/07/31 10:13:42;;;;;;;14.73;8.10;;;;;;;;;;4943659;29;20027;-68
2021/07/31 10:16:08;;;;;;;13.80;7.82;;;;;;;;;;4940075;29;20126;-67
2021/07/31 10:18:35;;;;;;;15.20;8.68;;;;;;;;;;4935189;29;20019;-65
2021/07/31 10:21:09;;;;;;;11.48;8.13;;;;;;;;;;4935492;29;20036;-65
2021/07/31 10:23:53;;;;;;;13.00;8.23;;;;;;;;;;4935266;29;20027;-67
2021/07/31 10:26:19;;;;;;;8.88;7.85;;;;;;;;;;4936889;29;20047;-66
2021/07/31 10:28:45;;;;;;;11.80;8.32;;;;;;;;;;4935550;29;20031;-67
2021/07/31 10:31:27;;;;;;;16.33;8.07;;;;;;;;;;4935300;29;20036;-68
2021/07/31 10:33:54;;;;;;;12.10;8.32;;;;;;;;;;4947852;29;20019;-64
2021/07/31 10:36:33;;;;;;;12.88;8.30;;;;;;;;;;4936287;29;20019;-68
2021/07/31 10:38:59;;;;;;;13.30;8.10;;;;;;;;;;4935105;29;20111;-68
2021/07/31 10:41:44;;;;;;;12.75;8.25;;;;;;;;;;4937152;29;20094;-68
2021/07/31 10:44:11;;;;;;;19.35;8.45;;;;;;;;;;4947100;29;20107;-67
2021/07/31 10:46:39;;;;;;;15.38;8.80;;;;;;;;;;4936074;29;20060;-64
2021/07/31 10:49:23;;;;;;;12.68;8.40;;;;;;;;;;4935206;29;20071;-68
2021/07/31 10:51:49;;;;;;;11.25;7.60;;;;;;;;;;4946354;29;20035;-68
2021/07/31 10:54:16;;;;;;;12.30;8.27;;;;;;;;;;4935333;29;20474;-68
2021/07/31 10:57:02;;;;;;;13.70;8.07;;;;;;;;;;4943912;29;20049;-67
2021/07/31 10:59:28;;;;;;;10.27;8.30;;;;;;;;;;4950881;29;20094;-66
2021/07/31 11:02:14;;;;;;;16.52;8.70;;;;;;;;;;4935024;29;20024;-64
2021/07/31 11:04:56;;;;;;;15.23;8.15;;;;;;;;;;4935791;29;20508;-68
2021/07/31 11:07:25;;;;;;;12.48;8.52;;;;;;;;;;4935963;29;20127;-68
2021/07/31 11:10:10;;;;;;;12.40;8.73;;;;;;;;;;4937314;29;20020;-68
2021/07/31 11:12:44;;;;;;;9.10;7.55;;;;;;;;;;4953927;29;20493;-68
2021/07/31 11:15:10;;;;;;;13.70;8.77;;;;;;;;;;4944554;29;20486;-67
2021/07/31 11:17:39;;;;;;;11.48;7.93;;;;;;;;;;4935919;29;20126;-68
2021/07/31 11:20:25;;;;;;;13.52;7.93;;;;;;;;;;4934682;29;20024;-69
2021/07/31 11:22:52;;;;;;;11.73;8.13;;;;;;;;;;4934784;29;20036;-68
2021/07/31 11:25:20;;;;;;;10.63;7.75;;;;;;;;;;4939238;29;20083;-64
2021/07/31 11:27:55;;;;;;;12.50;8.32;;;;;;;;;;4934832;29;20040;-63
2021/07/31 11:30:21;;;;;;;13.13;7.13;;;;;;;;;;4934524;29;20020;-64
2021/07/31 11:32:47;;;;;;;12.27;7.72;;;;;;;;;;4934604;29;20032;-64
2021/07/31 11:35:26;;;;;;;11.20;7.50;;;;;;;;;;4935981;29;20024;-65
2021/07/31 11:37:52;;;;;;;9.77;8.43;;;;;;;;;;4934518;29;20386;-68
2021/07/31 11:40:18;;;;;;;11.02;8.15;;;;;;;;;;4936837;29;20024;-66
2021/07/31 11:42:44;;;;;;;12.48;7.80;;;;;;;;;;4934700;29;20039;-68
2021/07/31 11:45:10;;;;;;;11.98;7.72;;;;;;;;;;4940094;29;20023;-66
2021/07/31 11:47:39;;;;;;;10.23;7.65;;;;;;;;;;4944422;29;20055;-67
2021/07/31 11:50:06;;;;;;;10.82;7.90;;;;;;;;;;4934135;29;20114;-65
2021/07/31 11:52:32;;;;;;;13.65;8.00;;;;;;;;;;4949531;28;20415;-68
2021/07/31 11:54:58;;;;;;;14.50;7.80;;;;;;;;;;4938773;29;20027;-65
2021/07/31 11:57:24;;;;;;;10.80;7.57;;;;;;;;;;4955583;29;20028;-68
2021/07/31 11:59:50;;;;;;;11.23;7.57;;;;;;;;;;4937867;29;20032;-67
2021/07/31 12:02:32;;;;;;;15.88;8.15;;;;;;;;;;4937991;29;20055;-68
2021/07/31 12:04:58;;;;;;;9.68;7.30;;;;;;;;;;4938298;29;20039;-65
2021/07/31 12:07:25;;;;;;;16.58;7.53;;;;;;;;;;4938765;29;20489;-68
2021/07/31 12:09:58;;;;;;;12.18;7.55;;;;;;;;;;4940270;29;20038;-65
2021/07/31 12:12:24;;;;;;;10.63;7.70;;;;;;;;;;4945548;29;20627;-68
2021/07/31 12:15:09;;;;;;;11.13;7.68;;;;;;;;;;4954877;29;20037;-65
2021/07/31 12:17:37;;;;;;;10.55;7.63;;;;;;;;;;4944051;29;20037;-68
2021/07/31 12:20:04;;;;;;;7.85;7.00;;;;;;;;;;4937518;29;20031;-68
2021/07/31 12:22:31;;;;;;;10.40;7.47;;;;;;;;;;4948553;29;20071;-68
2021/07/31 12:25:13;;;;;;;12.43;8.18;;;;;;;;;;4940073;29;20597;-67
2021/07/31 12:28:13;;;;;;;12.43;7.70;;;;;;;;;;4941017;29;20043;-64
2021/07/31 12:30:43;;;;;;;12.45;7.28;;;;;;;;;;4878624;29;20138;-67
2021/07/31 12:33:09;;;;;;;12.23;7.10;;;;;;;;;;4879000;29;20037;-68
2021/07/31 12:35:39;;;;;;;16.30;7.40;;;;;;;;;;4876960;29;20053;-66
2021/07/31 12:38:07;;;;;;;11.73;7.13;;;;;;;;;;4873658;29;20550;-65
2021/07/31 12:40:33;;;;;;;11.40;7.30;;;;;;;;;;4875364;29;20052;-68
2021/07/31 12:43:00;;;;;;;9.65;6.93;;;;;;;;;;4878898;29;20029;-68
2021/07/31 12:45:29;;;;;;;10.90;7.22;;;;;;;;;;4878584;29;20028;-68
2021/07/31 12:47:55;;;;;;;12.43;7.40;;;;;;;;;;4876982;29;20166;-68
2021/07/31 12:50:22;;;;;;;11.63;7.70;;;;;;;;;;4877220;29;20092;-65
2021/07/31 12:52:48;;;;;;;10.07;7.47;;;;;;;;;;4878447;29;20049;-68
2021/07/31 12:55:14;;;;;;;11.43;7.50;;;;;;;;;;4876989;29;20048;-67
2021/07/31 12:57:40;;;;;;;10.38;6.80;;;;;;;;;;4867005;29;20445;-68
2021/07/31 13:00:06;;;;;;;12.15;7.35;;;;;;;;;;4877767;29;20530;-67
2021/07/31 13:02:32;;;;;;;14.20;7.22;;;;;;;;;;4878102;29;20033;-65
2021/07/31 13:04:58;;;;;;;9.85;6.93;;;;;;;;;;4877427;29;20112;-69
2021/07/31 13:07:24;;;;;;;11.23;7.15;;;;;;;;;;4918412;29;20126;-67
2021/07/31 13:09:50;;;;;;;9.77;6.70;;;;;;;;;;4936973;29;20879;-65
2021/07/31 13:12:17;;;;;;;12.63;7.65;;;;;;;;;;4936996;29;20035;-64
2021/07/31 13:14:43;;;;;;;11.63;7.70;;;;;;;;;;4936742;29;20102;-68
2021/07/31 13:17:09;;;;;;;9.05;7.20;;;;;;;;;;4937843;29;20485;-66
2021/07/31 13:19:35;;;;;;;12.02;7.15;;;;;;;;;;4936329;29;20106;-64
2021/07/31 13:22:01;;;;;;;12.43;7.00;;;;;;;;;;4940603;29;20095;-66
2021/07/31 13:24:27;;;;;;;10.20;6.70;;;;;;;;;;4936331;29;20075;-69
2021/07/31 13:26:53;;;;;;;10.63;7.47;;;;;;;;;;4948959;29;20044;-67
2021/07/31 13:29:19;;;;;;;11.85;7.05;;;;;;;;;;4947263;29;20094;-67
2021/07/31 13:31:46;;;;;;;14.15;6.85;;;;;;;;;;4943121;29;20035;-69
2021/07/31 13:34:15;;;;;;;12.13;7.28;;;;;;;;;;4946477;29;20047;-65
2021/07/31 13:36:43;;;;;;;11.68;6.80;;;;;;;;;;4938793;29;20040;-67
2021/07/31 13:39:12;;;;;;;12.32;6.90;;;;;;;;;;4939419;29;20032;-66
2021/07/31 13:41:38;;;;;;;9.70;7.00;;;;;;;;;;4935781;29;20094;-68
2021/07/31 13:44:14;;;;;;;12.23;6.70;;;;;;;;;;4950063;29;20163;-69
2021/07/31 13:46:40;;;;;;;9.23;7.03;;;;;;;;;;4952005;29;20101;-68
2021/07/31 13:49:06;;;;;;;11.20;6.82;;;;;;;;;;4946319;29;20434;-65
2021/07/31 13:51:32;;;;;;;10.02;7.10;;;;;;;;;;4950297;29;20051;-67
2021/07/31 13:53:58;;;;;;;10.50;6.50;;;;;;;;;;4951825;29;20042;-68
2021/07/31 13:56:24;;;;;;;8.45;6.72;;;;;;;;;;4946080;29;20362;-68
2021/07/31 13:58:50;;;;;;;10.10;6.10;;;;;;;;;;4949352;29;20094;-67
2021/07/31 14:01:19;;;;;;;9.20;6.10;;;;;;;;;;4947821;29;20056;-67
2021/07/31 14:03:46;;;;;;;12.05;6.50;;;;;;;;;;4952448;29;20481;-66
2021/07/31 14:06:16;;;;;;;8.43;6.20;;;;;;;;;;4945462;29;20035;-68
2021/07/31 14:08:42;;;;;;;13.52;6.28;;;;;;;;;;4948500;29;20023;-68
2021/07/31 14:11:08;;;;;;;9.05;6.18;;;;;;;;;;4949188;29;20043;-68
2021/07/31 14:13:34;;;;;;;19.63;6.88;;;;;;;;;;4949453;29;20023;-69
2021/07/31 14:16:00;;;;;;;15.07;6.43;;;;;;;;;;4951054;28;20015;-68
2021/07/31 14:18:26;;;;;;;13.82;6.28;;;;;;;;;;4935653;28;20031;-69
2021/07/31 14:20:52;;;;;;;8.13;5.68;;;;;;;;;;4951723;29;20124;-70
2021/07/31 14:23:18;;;;;;;8.73;5.80;;;;;;;;;;4951016;29;20027;-70
2021/07/31 14:25:45;;;;;;;10.02;5.65;;;;;;;;;;4939339;29;20137;-69
2021/07/31 14:28:11;;;;;;;9.60;6.07;;;;;;;;;;4954052;29;20564;-67
2021/07/31 14:30:37;;;;;;;9.43;6.22;;;;;;;;;;4954195;29;20103;-68
2021/07/31 14:33:04;;;;;;;6.70;5.43;;;;;;;;;;4941034;29;20126;-69